sensor_id;sensor_type;location;lat;lon;timestamp;temperature;humidity
16767;DHT22;8501;49.926;8.404;2022-12-10T00:00:23;2.50;99.90
16767;DHT22;8501;49.926;8.404;2022-12-10T00:02:48;2.60;99.90
16767;DHT22;8501;49.926;8.404;2022-12-10T00:05:14;2.60;99.90
16767;DHT22;8501;49.926;8.404;2022-12-10T00:07:40;2.60;99.90
16767;DHT22;8501;49.926;8.404;2022-12-10T00:10:06;2.60;99.90
16767;DHT22;8501;49.926;8.404;2022-12-10T00:12:31;2.70;99.90
16767;DHT22;8501;49.926;8.404;2022-12-10T00:14:57;2.50;99.90
16767;DHT22;8501;49.926;8.404;2022-12-10T00:17:23;2.50;99.90
16767;DHT22;8501;49.926;8.404;2022-12-10T00:19:48;2.50;99.90
16767;DHT22;8501;49.926;8.404;2022-12-10T00:22:14;2.60;99.90
16767;DHT22;8501;49.926;8.404;2022-12-10T00:24:39;2.50;99.90
16767;DHT22;8501;49.926;8.404;2022-12-10T00:27:05;2.50;99.90
16767;DHT22;8501;49.926;8.404;2022-12-10T00:29:30;2.50;99.90
16767;DHT22;8501;49.926;8.404;2022-12-10T00:31:56;2.50;99.90
16767;DHT22;8501;49.926;8.404;2022-12-10T00:34:21;2.50;99.90
16767;DHT22;8501;49.926;8.404;2022-12-10T00:36:48;2.50;99.90
16767;DHT22;8501;49.926;8.404;2022-12-10T00:39:17;2.50;99.90
16767;DHT22;8501;49.926;8.404;2022-12-10T00:41:43;2.50;99.90
16767;DHT22;8501;49.926;8.404;2022-12-10T00:44:08;2.50;99.90
16767;DHT22;8501;49.926;8.404;2022-12-10T00:46:34;2.50;99.90
16767;DHT22;8501;49.926;8.404;2022-12-10T00:49:00;2.50;99.90
16767;DHT22;8501;49.926;8.404;2022-12-10T00:51:27;2.50;99.90
16767;DHT22;8501;49.926;8.404;2022-12-10T00:53:54;2.50;99.90
16767;DHT22;8501;49.926;8.404;2022-12-10T00:56:26;2.50;99.90
16767;DHT22;8501;49.926;8.404;2022-12-10T00:58:52;2.50;99.90
16767;DHT22;8501;49.926;8.404;2022-12-10T01:01:32;2.50;99.90
16767;DHT22;8501;49.926;8.404;2022-12-10T01:04:02;2.50;99.90
16767;DHT22;8501;49.926;8.404;2022-12-10T01:06:32;2.50;99.90
16767;DHT22;8501;49.926;8.404;2022-12-10T01:09:00;2.40;99.90
16767;DHT22;8501;49.926;8.404;2022-12-10T01:11:30;2.50;99.90
16767;DHT22;8501;49.926;8.404;2022-12-10T01:13:56;2.50;99.90
16767;DHT22;8501;49.926;8.404;2022-12-10T01:16:23;2.50;99.90
16767;DHT22;8501;49.926;8.404;2022-12-10T01:18:48;2.40;99.90
16767;DHT22;8501;49.926;8.404;2022-12-10T01:21:17;2.50;99.90
16767;DHT22;8501;49.926;8.404;2022-12-10T01:23:44;2.40;99.90
16767;DHT22;8501;49.926;8.404;2022-12-10T01:26:13;2.40;99.90
16767;DHT22;8501;49.926;8.404;2022-12-10T01:28:40;2.40;99.90
16767;DHT22;8501;49.926;8.404;2022-12-10T01:31:15;2.40;99.90
16767;DHT22;8501;49.926;8.404;2022-12-10T01:33:41;2.40;99.90
16767;DHT22;8501;49.926;8.404;2022-12-10T01:36:33;2.40;99.90
16767;DHT22;8501;49.926;8.404;2022-12-10T01:38:58;2.40;99.90
16767;DHT22;8501;49.926;8.404;2022-12-10T01:41:28;2.40;99.90
16767;DHT22;8501;49.926;8.404;2022-12-10T01:46:54;2.40;99.90
16767;DHT22;8501;49.926;8.404;2022-12-10T01:49:26;2.50;99.90
16767;DHT22;8501;49.926;8.404;2022-12-10T01:51:54;2.40;99.90
16767;DHT22;8501;49.926;8.404;2022-12-10T01:54:26;2.40;99.90
16767;DHT22;8501;49.926;8.404;2022-12-10T01:57:00;2.40;99.90
16767;DHT22;8501;49.926;8.404;2022-12-10T01:59:28;2.40;99.90
16767;DHT22;8501;49.926;8.404;2022-12-10T02:02:30;2.30;99.90
16767;DHT22;8501;49.926;8.404;2022-12-10T02:05:37;2.40;99.90
16767;DHT22;8501;49.926;8.404;2022-12-10T02:08:26;2.40;99.90
16767;DHT22;8501;49.926;8.404;2022-12-10T02:13:49;2.30;99.90
16767;DHT22;8501;49.926;8.404;2022-12-10T02:16:20;2.30;99.90
16767;DHT22;8501;49.926;8.404;2022-12-10T02:21:38;2.30;99.90
16767;DHT22;8501;49.926;8.404;2022-12-10T02:24:08;2.20;99.90
16767;DHT22;8501;49.926;8.404;2022-12-10T02:26:48;2.20;99.90
16767;DHT22;8501;49.926;8.404;2022-12-10T02:29:25;2.20;99.90
16767;DHT22;8501;49.926;8.404;2022-12-10T02:32:04;2.30;99.90
16767;DHT22;8501;49.926;8.404;2022-12-10T02:34:35;2.30;99.90
16767;DHT22;8501;49.926;8.404;2022-12-10T02:37:05;2.20;99.90
16767;DHT22;8501;49.926;8.404;2022-12-10T02:39:35;2.20;99.90
16767;DHT22;8501;49.926;8.404;2022-12-10T02:42:02;2.30;99.90
16767;DHT22;8501;49.926;8.404;2022-12-10T02:44:30;2.30;99.90
16767;DHT22;8501;49.926;8.404;2022-12-10T02:47:11;2.30;99.90
16767;DHT22;8501;49.926;8.404;2022-12-10T02:49:39;2.20;99.90
16767;DHT22;8501;49.926;8.404;2022-12-10T02:52:07;2.20;99.90
16767;DHT22;8501;49.926;8.404;2022-12-10T03:00:01;2.10;99.90
16767;DHT22;8501;49.926;8.404;2022-12-10T03:02:54;2.20;99.90
16767;DHT22;8501;49.926;8.404;2022-12-10T03:05:53;2.10;99.90
16767;DHT22;8501;49.926;8.404;2022-12-10T03:08:27;2.10;99.90
16767;DHT22;8501;49.926;8.404;2022-12-10T03:11:08;2.20;99.90
16767;DHT22;8501;49.926;8.404;2022-12-10T03:13:40;2.20;99.90
16767;DHT22;8501;49.926;8.404;2022-12-10T03:16:09;2.20;99.90
16767;DHT22;8501;49.926;8.404;2022-12-10T03:18:36;2.20;99.90
16767;DHT22;8501;49.926;8.404;2022-12-10T03:21:05;2.10;99.90
16767;DHT22;8501;49.926;8.404;2022-12-10T03:23:33;2.10;99.90
16767;DHT22;8501;49.926;8.404;2022-12-10T03:26:00;2.00;99.90
16767;DHT22;8501;49.926;8.404;2022-12-10T03:28:27;2.00;99.90
16767;DHT22;8501;49.926;8.404;2022-12-10T03:30:55;2.00;99.90
16767;DHT22;8501;49.926;8.404;2022-12-10T03:33:21;2.10;99.90
16767;DHT22;8501;49.926;8.404;2022-12-10T03:35:47;2.10;99.90
16767;DHT22;8501;49.926;8.404;2022-12-10T03:38:13;2.00;99.90
16767;DHT22;8501;49.926;8.404;2022-12-10T03:40:39;2.00;99.90
16767;DHT22;8501;49.926;8.404;2022-12-10T03:43:04;1.90;99.90
16767;DHT22;8501;49.926;8.404;2022-12-10T03:45:30;1.90;99.90
16767;DHT22;8501;49.926;8.404;2022-12-10T03:47:56;1.90;99.90
16767;DHT22;8501;49.926;8.404;2022-12-10T03:50:21;1.90;99.90
16767;DHT22;8501;49.926;8.404;2022-12-10T03:52:47;1.90;99.90
16767;DHT22;8501;49.926;8.404;2022-12-10T03:55:12;1.90;99.90
16767;DHT22;8501;49.926;8.404;2022-12-10T03:57:38;1.90;99.90
16767;DHT22;8501;49.926;8.404;2022-12-10T04:00:05;1.90;99.90
16767;DHT22;8501;49.926;8.404;2022-12-10T04:02:30;1.90;99.90
16767;DHT22;8501;49.926;8.404;2022-12-10T04:04:56;2.00;99.90
16767;DHT22;8501;49.926;8.404;2022-12-10T04:07:21;2.00;99.90
16767;DHT22;8501;49.926;8.404;2022-12-10T04:09:47;1.90;99.90
16767;DHT22;8501;49.926;8.404;2022-12-10T04:12:13;1.90;99.90
16767;DHT22;8501;49.926;8.404;2022-12-10T04:14:39;1.90;99.90
16767;DHT22;8501;49.926;8.404;2022-12-10T04:17:23;1.90;99.90
16767;DHT22;8501;49.926;8.404;2022-12-10T04:19:49;1.80;99.90
16767;DHT22;8501;49.926;8.404;2022-12-10T04:22:14;1.80;99.90
16767;DHT22;8501;49.926;8.404;2022-12-10T04:24:58;1.90;99.90
16767;DHT22;8501;49.926;8.404;2022-12-10T04:27:42;1.80;99.90
16767;DHT22;8501;49.926;8.404;2022-12-10T04:30:10;1.80;99.90
16767;DHT22;8501;49.926;8.404;2022-12-10T04:32:36;1.80;99.90
16767;DHT22;8501;49.926;8.404;2022-12-10T04:35:02;1.80;99.90
16767;DHT22;8501;49.926;8.404;2022-12-10T04:37:28;1.70;99.90
16767;DHT22;8501;49.926;8.404;2022-12-10T04:39:54;1.70;99.90
16767;DHT22;8501;49.926;8.404;2022-12-10T04:42:21;1.70;99.90
16767;DHT22;8501;49.926;8.404;2022-12-10T04:44:46;1.70;99.90
16767;DHT22;8501;49.926;8.404;2022-12-10T04:47:12;1.70;99.90
16767;DHT22;8501;49.926;8.404;2022-12-10T04:49:38;1.60;99.90
16767;DHT22;8501;49.926;8.404;2022-12-10T04:52:06;1.60;99.90
16767;DHT22;8501;49.926;8.404;2022-12-10T04:54:31;1.70;99.90
16767;DHT22;8501;49.926;8.404;2022-12-10T04:56:57;1.70;99.90
16767;DHT22;8501;49.926;8.404;2022-12-10T04:59:23;1.60;99.90
16767;DHT22;8501;49.926;8.404;2022-12-10T05:01:48;1.70;99.90
16767;DHT22;8501;49.926;8.404;2022-12-10T05:04:16;1.70;99.90
16767;DHT22;8501;49.926;8.404;2022-12-10T05:06:43;1.70;99.90
16767;DHT22;8501;49.926;8.404;2022-12-10T05:09:11;1.60;99.90
16767;DHT22;8501;49.926;8.404;2022-12-10T05:11:37;1.60;99.90
16767;DHT22;8501;49.926;8.404;2022-12-10T05:14:02;1.60;99.90
16767;DHT22;8501;49.926;8.404;2022-12-10T05:16:30;1.70;99.90
16767;DHT22;8501;49.926;8.404;2022-12-10T05:18:57;1.60;99.90
16767;DHT22;8501;49.926;8.404;2022-12-10T05:21:24;1.60;99.90
16767;DHT22;8501;49.926;8.404;2022-12-10T05:23:52;1.70;99.90
16767;DHT22;8501;49.926;8.404;2022-12-10T05:26:18;1.60;99.90
16767;DHT22;8501;49.926;8.404;2022-12-10T05:28:55;1.60;99.90
16767;DHT22;8501;49.926;8.404;2022-12-10T05:31:23;1.60;99.90
16767;DHT22;8501;49.926;8.404;2022-12-10T05:33:50;1.50;99.90
16767;DHT22;8501;49.926;8.404;2022-12-10T05:36:18;1.50;99.90
16767;DHT22;8501;49.926;8.404;2022-12-10T05:38:45;1.50;99.90
16767;DHT22;8501;49.926;8.404;2022-12-10T05:41:14;1.50;99.90
16767;DHT22;8501;49.926;8.404;2022-12-10T05:43:40;1.50;99.90
16767;DHT22;8501;49.926;8.404;2022-12-10T05:46:09;1.50;99.90
16767;DHT22;8501;49.926;8.404;2022-12-10T05:48:35;1.60;99.90
16767;DHT22;8501;49.926;8.404;2022-12-10T05:51:05;1.50;99.90
16767;DHT22;8501;49.926;8.404;2022-12-10T05:53:31;1.50;99.90
16767;DHT22;8501;49.926;8.404;2022-12-10T05:56:11;1.40;99.90
16767;DHT22;8501;49.926;8.404;2022-12-10T05:58:38;1.40;99.90
16767;DHT22;8501;49.926;8.404;2022-12-10T06:01:30;1.30;99.90
16767;DHT22;8501;49.926;8.404;2022-12-10T06:03:54;1.30;99.90
16767;DHT22;8501;49.926;8.404;2022-12-10T06:06:21;1.40;99.90
16767;DHT22;8501;49.926;8.404;2022-12-10T06:08:48;1.40;99.90
16767;DHT22;8501;49.926;8.404;2022-12-10T06:11:13;1.40;99.90
16767;DHT22;8501;49.926;8.404;2022-12-10T06:13:39;1.40;99.90
16767;DHT22;8501;49.926;8.404;2022-12-10T06:16:09;1.50;99.90
16767;DHT22;8501;49.926;8.404;2022-12-10T06:18:35;1.40;99.90
16767;DHT22;8501;49.926;8.404;2022-12-10T06:21:09;1.30;99.90
16767;DHT22;8501;49.926;8.404;2022-12-10T06:23:36;1.30;99.90
16767;DHT22;8501;49.926;8.404;2022-12-10T06:26:10;1.20;99.90
16767;DHT22;8501;49.926;8.404;2022-12-10T06:28:36;1.20;99.90
16767;DHT22;8501;49.926;8.404;2022-12-10T06:31:02;1.20;99.90
16767;DHT22;8501;49.926;8.404;2022-12-10T06:33:28;1.20;99.90
16767;DHT22;8501;49.926;8.404;2022-12-10T06:35:54;1.20;99.90
16767;DHT22;8501;49.926;8.404;2022-12-10T06:38:19;1.20;99.90
16767;DHT22;8501;49.926;8.404;2022-12-10T06:40:45;1.10;99.90
16767;DHT22;8501;49.926;8.404;2022-12-10T06:43:11;1.10;99.90
16767;DHT22;8501;49.926;8.404;2022-12-10T06:45:40;1.00;99.90
16767;DHT22;8501;49.926;8.404;2022-12-10T06:48:06;0.90;99.90
16767;DHT22;8501;49.926;8.404;2022-12-10T06:50:32;1.00;99.90
16767;DHT22;8501;49.926;8.404;2022-12-10T06:52:57;1.00;99.90
16767;DHT22;8501;49.926;8.404;2022-12-10T06:55:23;0.90;99.90
16767;DHT22;8501;49.926;8.404;2022-12-10T06:57:53;0.90;99.90
16767;DHT22;8501;49.926;8.404;2022-12-10T07:00:20;0.90;99.90
16767;DHT22;8501;49.926;8.404;2022-12-10T07:02:46;0.90;99.90
16767;DHT22;8501;49.926;8.404;2022-12-10T07:05:12;0.90;99.90
16767;DHT22;8501;49.926;8.404;2022-12-10T07:07:37;1.00;99.90
16767;DHT22;8501;49.926;8.404;2022-12-10T07:10:04;0.90;99.90
16767;DHT22;8501;49.926;8.404;2022-12-10T07:12:29;0.80;99.90
16767;DHT22;8501;49.926;8.404;2022-12-10T07:14:55;0.80;99.90
16767;DHT22;8501;49.926;8.404;2022-12-10T07:17:21;0.90;99.90
16767;DHT22;8501;49.926;8.404;2022-12-10T07:19:46;0.90;99.90
16767;DHT22;8501;49.926;8.404;2022-12-10T07:22:12;0.90;99.90
16767;DHT22;8501;49.926;8.404;2022-12-10T07:24:37;0.90;99.90
16767;DHT22;8501;49.926;8.404;2022-12-10T07:27:07;0.90;99.90
16767;DHT22;8501;49.926;8.404;2022-12-10T07:29:32;0.90;99.90
16767;DHT22;8501;49.926;8.404;2022-12-10T07:31:58;0.80;99.90
16767;DHT22;8501;49.926;8.404;2022-12-10T07:34:24;0.80;99.90
16767;DHT22;8501;49.926;8.404;2022-12-10T07:36:49;0.80;99.90
16767;DHT22;8501;49.926;8.404;2022-12-10T07:39:15;0.90;99.90
16767;DHT22;8501;49.926;8.404;2022-12-10T07:41:52;1.10;99.90
16767;DHT22;8501;49.926;8.404;2022-12-10T07:44:19;1.10;99.90
16767;DHT22;8501;49.926;8.404;2022-12-10T07:46:47;1.20;99.90
16767;DHT22;8501;49.926;8.404;2022-12-10T07:49:12;1.20;99.90
16767;DHT22;8501;49.926;8.404;2022-12-10T07:51:38;1.10;99.90
16767;DHT22;8501;49.926;8.404;2022-12-10T07:54:04;1.00;99.90
16767;DHT22;8501;49.926;8.404;2022-12-10T07:56:30;1.00;99.90
16767;DHT22;8501;49.926;8.404;2022-12-10T07:58:55;1.00;99.90
16767;DHT22;8501;49.926;8.404;2022-12-10T08:01:23;0.90;99.90
16767;DHT22;8501;49.926;8.404;2022-12-10T08:03:50;1.00;99.90
16767;DHT22;8501;49.926;8.404;2022-12-10T08:06:17;1.00;99.90
16767;DHT22;8501;49.926;8.404;2022-12-10T08:08:44;1.00;99.90
16767;DHT22;8501;49.926;8.404;2022-12-10T08:11:11;1.10;99.90
16767;DHT22;8501;49.926;8.404;2022-12-10T08:13:38;1.20;99.90
16767;DHT22;8501;49.926;8.404;2022-12-10T08:16:10;1.30;99.90
16767;DHT22;8501;49.926;8.404;2022-12-10T08:18:36;1.40;99.90
16767;DHT22;8501;49.926;8.404;2022-12-10T08:21:06;1.40;99.90
16767;DHT22;8501;49.926;8.404;2022-12-10T08:23:32;1.50;99.90
16767;DHT22;8501;49.926;8.404;2022-12-10T08:25:58;1.50;99.90
16767;DHT22;8501;49.926;8.404;2022-12-10T08:28:24;1.40;99.90
16767;DHT22;8501;49.926;8.404;2022-12-10T08:30:49;1.40;99.90
16767;DHT22;8501;49.926;8.404;2022-12-10T08:33:15;1.30;99.90
16767;DHT22;8501;49.926;8.404;2022-12-10T08:35:41;1.30;99.90
16767;DHT22;8501;49.926;8.404;2022-12-10T08:38:06;1.30;99.90
16767;DHT22;8501;49.926;8.404;2022-12-10T08:40:32;1.40;99.90
16767;DHT22;8501;49.926;8.404;2022-12-10T08:42:58;1.50;99.90
16767;DHT22;8501;49.926;8.404;2022-12-10T08:45:23;1.50;99.90
16767;DHT22;8501;49.926;8.404;2022-12-10T08:47:48;1.60;99.90
16767;DHT22;8501;49.926;8.404;2022-12-10T08:50:14;1.60;99.90
16767;DHT22;8501;49.926;8.404;2022-12-10T08:52:40;1.50;99.90
16767;DHT22;8501;49.926;8.404;2022-12-10T08:55:06;1.40;99.90
16767;DHT22;8501;49.926;8.404;2022-12-10T08:57:31;1.40;99.90
16767;DHT22;8501;49.926;8.404;2022-12-10T08:59:57;1.40;99.90
16767;DHT22;8501;49.926;8.404;2022-12-10T09:02:22;1.40;99.90
16767;DHT22;8501;49.926;8.404;2022-12-10T09:04:50;1.50;99.90
16767;DHT22;8501;49.926;8.404;2022-12-10T09:07:15;1.60;99.90
16767;DHT22;8501;49.926;8.404;2022-12-10T09:09:41;1.70;99.90
16767;DHT22;8501;49.926;8.404;2022-12-10T09:12:06;1.70;99.90
16767;DHT22;8501;49.926;8.404;2022-12-10T09:14:32;1.70;99.90
16767;DHT22;8501;49.926;8.404;2022-12-10T09:16:57;1.70;99.90
16767;DHT22;8501;49.926;8.404;2022-12-10T09:19:23;1.70;99.90
16767;DHT22;8501;49.926;8.404;2022-12-10T09:21:48;1.70;99.90
16767;DHT22;8501;49.926;8.404;2022-12-10T09:24:14;1.70;99.90
16767;DHT22;8501;49.926;8.404;2022-12-10T09:26:40;1.70;99.90
16767;DHT22;8501;49.926;8.404;2022-12-10T09:29:05;1.70;99.90
16767;DHT22;8501;49.926;8.404;2022-12-10T09:31:31;1.70;99.90
16767;DHT22;8501;49.926;8.404;2022-12-10T09:33:57;1.70;99.90
16767;DHT22;8501;49.926;8.404;2022-12-10T09:36:22;1.80;99.90
16767;DHT22;8501;49.926;8.404;2022-12-10T09:38:49;1.80;99.90
16767;DHT22;8501;49.926;8.404;2022-12-10T09:51:37;2.00;99.90
16767;DHT22;8501;49.926;8.404;2022-12-10T09:54:22;2.00;99.90
16767;DHT22;8501;49.926;8.404;2022-12-10T09:56:50;1.90;99.90
16767;DHT22;8501;49.926;8.404;2022-12-10T09:59:22;2.00;99.90
16767;DHT22;8501;49.926;8.404;2022-12-10T10:01:57;2.20;99.90
16767;DHT22;8501;49.926;8.404;2022-12-10T10:04:24;2.00;99.90
16767;DHT22;8501;49.926;8.404;2022-12-10T10:06:50;2.00;99.90
16767;DHT22;8501;49.926;8.404;2022-12-10T10:09:17;2.00;99.90
16767;DHT22;8501;49.926;8.404;2022-12-10T10:11:43;2.00;99.90
16767;DHT22;8501;49.926;8.404;2022-12-10T10:14:39;2.00;99.90
16767;DHT22;8501;49.926;8.404;2022-12-10T10:17:18;2.10;99.90
16767;DHT22;8501;49.926;8.404;2022-12-10T10:19:45;2.10;99.90
16767;DHT22;8501;49.926;8.404;2022-12-10T10:22:11;2.10;99.90
16767;DHT22;8501;49.926;8.404;2022-12-10T10:24:42;2.10;99.90
16767;DHT22;8501;49.926;8.404;2022-12-10T10:29:46;2.10;99.90
16767;DHT22;8501;49.926;8.404;2022-12-10T10:32:14;2.20;99.90
16767;DHT22;8501;49.926;8.404;2022-12-10T10:34:40;2.20;99.90
16767;DHT22;8501;49.926;8.404;2022-12-10T10:37:11;2.30;99.90
16767;DHT22;8501;49.926;8.404;2022-12-10T10:39:40;2.30;99.90
16767;DHT22;8501;49.926;8.404;2022-12-10T10:42:14;2.40;99.90
16767;DHT22;8501;49.926;8.404;2022-12-10T10:44:44;2.50;99.90
16767;DHT22;8501;49.926;8.404;2022-12-10T10:47:34;2.50;99.90
16767;DHT22;8501;49.926;8.404;2022-12-10T10:50:00;2.50;99.90
16767;DHT22;8501;49.926;8.404;2022-12-10T10:52:34;2.60;99.90
16767;DHT22;8501;49.926;8.404;2022-12-10T10:55:00;2.70;99.90
16767;DHT22;8501;49.926;8.404;2022-12-10T10:57:35;2.70;99.90
16767;DHT22;8501;49.926;8.404;2022-12-10T11:00:06;2.70;99.90
16767;DHT22;8501;49.926;8.404;2022-12-10T11:02:38;2.70;99.90
16767;DHT22;8501;49.926;8.404;2022-12-10T11:05:29;2.70;99.90
16767;DHT22;8501;49.926;8.404;2022-12-10T11:08:03;2.70;99.90
16767;DHT22;8501;49.926;8.404;2022-12-10T11:10:29;2.80;99.90
16767;DHT22;8501;49.926;8.404;2022-12-10T11:13:06;2.80;99.90
16767;DHT22;8501;49.926;8.404;2022-12-10T11:15:40;2.80;99.90
16767;DHT22;8501;49.926;8.404;2022-12-10T11:21:17;2.80;99.90
16767;DHT22;8501;49.926;8.404;2022-12-10T11:23:51;2.70;99.90
16767;DHT22;8501;49.926;8.404;2022-12-10T11:26:46;2.70;99.90
16767;DHT22;8501;49.926;8.404;2022-12-10T11:35:19;2.70;99.90
16767;DHT22;8501;49.926;8.404;2022-12-10T11:37:53;2.70;99.90
16767;DHT22;8501;49.926;8.404;2022-12-10T11:51:21;2.90;99.90
16767;DHT22;8501;49.926;8.404;2022-12-10T11:57:08;2.90;99.90
16767;DHT22;8501;49.926;8.404;2022-12-10T11:59:51;2.90;99.90
16767;DHT22;8501;49.926;8.404;2022-12-10T12:05:24;3.00;99.90
16767;DHT22;8501;49.926;8.404;2022-12-10T12:08:10;3.40;99.90
16767;DHT22;8501;49.926;8.404;2022-12-10T12:10:47;3.20;99.90
16767;DHT22;8501;49.926;8.404;2022-12-10T12:13:24;3.10;99.90
16767;DHT22;8501;49.926;8.404;2022-12-10T12:15:59;3.10;99.90
16767;DHT22;8501;49.926;8.404;2022-12-10T12:18:47;3.10;99.90
16767;DHT22;8501;49.926;8.404;2022-12-10T12:21:15;3.20;99.90
16767;DHT22;8501;49.926;8.404;2022-12-10T12:24:01;3.10;99.90
16767;DHT22;8501;49.926;8.404;2022-12-10T12:26:51;3.20;99.90
16767;DHT22;8501;49.926;8.404;2022-12-10T12:29:25;3.20;99.90
16767;DHT22;8501;49.926;8.404;2022-12-10T12:32:15;3.20;99.90
16767;DHT22;8501;49.926;8.404;2022-12-10T12:34:56;3.20;99.90
16767;DHT22;8501;49.926;8.404;2022-12-10T12:37:38;3.20;99.90
16767;DHT22;8501;49.926;8.404;2022-12-10T12:43:09;3.20;99.90
16767;DHT22;8501;49.926;8.404;2022-12-10T12:45:42;3.20;99.90
16767;DHT22;8501;49.926;8.404;2022-12-10T12:48:29;3.20;99.90
16767;DHT22;8501;49.926;8.404;2022-12-10T12:51:12;3.20;99.90
16767;DHT22;8501;49.926;8.404;2022-12-10T12:53:40;3.30;99.90
16767;DHT22;8501;49.926;8.404;2022-12-10T12:56:14;3.30;99.90
16767;DHT22;8501;49.926;8.404;2022-12-10T13:03:59;3.30;99.90
16767;DHT22;8501;49.926;8.404;2022-12-10T13:06:27;3.30;99.90
16767;DHT22;8501;49.926;8.404;2022-12-10T13:11:46;3.30;99.90
16767;DHT22;8501;49.926;8.404;2022-12-10T13:14:28;3.40;99.90
16767;DHT22;8501;49.926;8.404;2022-12-10T13:19:40;3.40;99.90
16767;DHT22;8501;49.926;8.404;2022-12-10T13:22:39;3.40;99.90
16767;DHT22;8501;49.926;8.404;2022-12-10T13:25:17;3.40;99.90
16767;DHT22;8501;49.926;8.404;2022-12-10T13:27:57;3.50;99.90
16767;DHT22;8501;49.926;8.404;2022-12-10T13:30:41;3.60;99.90
16767;DHT22;8501;49.926;8.404;2022-12-10T13:33:19;3.70;99.90
16767;DHT22;8501;49.926;8.404;2022-12-10T13:35:58;3.60;99.90
16767;DHT22;8501;49.926;8.404;2022-12-10T13:38:27;3.60;99.90
16767;DHT22;8501;49.926;8.404;2022-12-10T13:41:03;3.60;99.90
16767;DHT22;8501;49.926;8.404;2022-12-10T13:43:56;3.50;99.90
16767;DHT22;8501;49.926;8.404;2022-12-10T13:52:22;3.40;99.90
16767;DHT22;8501;49.926;8.404;2022-12-10T13:55:16;3.40;99.90
16767;DHT22;8501;49.926;8.404;2022-12-10T14:00:34;3.30;99.90
16767;DHT22;8501;49.926;8.404;2022-12-10T14:09:04;3.30;99.90
16767;DHT22;8501;49.926;8.404;2022-12-10T14:11:40;3.30;99.90
16767;DHT22;8501;49.926;8.404;2022-12-10T14:14:13;3.30;99.90
16767;DHT22;8501;49.926;8.404;2022-12-10T14:16:41;3.20;99.90
16767;DHT22;8501;49.926;8.404;2022-12-10T14:19:12;3.20;99.90
16767;DHT22;8501;49.926;8.404;2022-12-10T14:21:41;3.20;99.90
16767;DHT22;8501;49.926;8.404;2022-12-10T14:24:38;3.20;99.90
16767;DHT22;8501;49.926;8.404;2022-12-10T14:27:18;3.20;99.90
16767;DHT22;8501;49.926;8.404;2022-12-10T14:29:52;3.10;99.90
16767;DHT22;8501;49.926;8.404;2022-12-10T14:32:27;3.20;99.90
16767;DHT22;8501;49.926;8.404;2022-12-10T14:34:58;3.10;99.90
16767;DHT22;8501;49.926;8.404;2022-12-10T14:37:27;3.10;99.90
16767;DHT22;8501;49.926;8.404;2022-12-10T14:39:53;3.10;99.90
16767;DHT22;8501;49.926;8.404;2022-12-10T14:42:19;3.20;99.90
16767;DHT22;8501;49.926;8.404;2022-12-10T14:44:45;3.10;99.90
16767;DHT22;8501;49.926;8.404;2022-12-10T14:47:15;3.10;99.90
16767;DHT22;8501;49.926;8.404;2022-12-10T14:49:44;3.00;99.90
16767;DHT22;8501;49.926;8.404;2022-12-10T14:52:25;3.00;99.90
16767;DHT22;8501;49.926;8.404;2022-12-10T14:54:57;3.00;99.90
16767;DHT22;8501;49.926;8.404;2022-12-10T14:57:26;2.90;99.90
16767;DHT22;8501;49.926;8.404;2022-12-10T15:00:03;2.90;99.90
16767;DHT22;8501;49.926;8.404;2022-12-10T15:02:39;2.80;99.90
16767;DHT22;8501;49.926;8.404;2022-12-10T15:05:12;2.70;99.90
16767;DHT22;8501;49.926;8.404;2022-12-10T15:07:38;2.70;99.90
16767;DHT22;8501;49.926;8.404;2022-12-10T15:10:10;2.60;99.90
16767;DHT22;8501;49.926;8.404;2022-12-10T15:12:49;2.70;99.90
16767;DHT22;8501;49.926;8.404;2022-12-10T15:15:29;2.60;99.90
16767;DHT22;8501;49.926;8.404;2022-12-10T15:18:00;2.60;99.90
16767;DHT22;8501;49.926;8.404;2022-12-10T15:20:31;2.60;99.90
16767;DHT22;8501;49.926;8.404;2022-12-10T15:23:15;2.60;99.90
16767;DHT22;8501;49.926;8.404;2022-12-10T15:25:51;2.70;99.90
16767;DHT22;8501;49.926;8.404;2022-12-10T15:28:29;2.60;99.90
16767;DHT22;8501;49.926;8.404;2022-12-10T15:33:48;2.60;99.90
16767;DHT22;8501;49.926;8.404;2022-12-10T15:38:46;2.40;99.90
16767;DHT22;8501;49.926;8.404;2022-12-10T15:49:34;2.30;99.90
16767;DHT22;8501;49.926;8.404;2022-12-10T15:52:00;2.30;99.90
16767;DHT22;8501;49.926;8.404;2022-12-10T15:54:34;2.30;99.90
16767;DHT22;8501;49.926;8.404;2022-12-10T15:57:11;2.30;99.90
16767;DHT22;8501;49.926;8.404;2022-12-10T15:59:37;2.30;99.90
16767;DHT22;8501;49.926;8.404;2022-12-10T16:02:03;2.30;99.90
16767;DHT22;8501;49.926;8.404;2022-12-10T16:04:33;2.30;99.90
16767;DHT22;8501;49.926;8.404;2022-12-10T16:06:58;2.30;99.90
16767;DHT22;8501;49.926;8.404;2022-12-10T16:09:24;2.20;99.90
16767;DHT22;8501;49.926;8.404;2022-12-10T16:11:49;2.20;99.90
16767;DHT22;8501;49.926;8.404;2022-12-10T16:14:15;2.10;99.90
16767;DHT22;8501;49.926;8.404;2022-12-10T16:16:40;2.10;99.90
16767;DHT22;8501;49.926;8.404;2022-12-10T16:19:10;2.10;99.90
16767;DHT22;8501;49.926;8.404;2022-12-10T16:21:37;2.10;99.90
16767;DHT22;8501;49.926;8.404;2022-12-10T16:24:02;2.10;99.90
16767;DHT22;8501;49.926;8.404;2022-12-10T16:26:28;2.00;99.90
16767;DHT22;8501;49.926;8.404;2022-12-10T16:28:53;2.00;99.90
16767;DHT22;8501;49.926;8.404;2022-12-10T16:31:20;2.10;99.90
16767;DHT22;8501;49.926;8.404;2022-12-10T16:33:46;2.00;99.90
16767;DHT22;8501;49.926;8.404;2022-12-10T16:36:14;2.00;99.90
16767;DHT22;8501;49.926;8.404;2022-12-10T16:38:40;1.90;99.90
16767;DHT22;8501;49.926;8.404;2022-12-10T16:41:16;1.80;99.90
16767;DHT22;8501;49.926;8.404;2022-12-10T16:43:42;1.90;99.90
16767;DHT22;8501;49.926;8.404;2022-12-10T16:46:10;1.80;99.90
16767;DHT22;8501;49.926;8.404;2022-12-10T16:48:37;1.80;99.90
16767;DHT22;8501;49.926;8.404;2022-12-10T16:51:02;1.80;99.90
16767;DHT22;8501;49.926;8.404;2022-12-10T16:53:29;1.80;99.90
16767;DHT22;8501;49.926;8.404;2022-12-10T16:55:59;1.80;99.90
16767;DHT22;8501;49.926;8.404;2022-12-10T16:58:25;1.80;99.90
16767;DHT22;8501;49.926;8.404;2022-12-10T17:00:53;1.80;99.90
16767;DHT22;8501;49.926;8.404;2022-12-10T17:03:23;1.70;99.90
16767;DHT22;8501;49.926;8.404;2022-12-10T17:06:00;1.70;99.90
16767;DHT22;8501;49.926;8.404;2022-12-10T17:08:27;1.70;99.90
16767;DHT22;8501;49.926;8.404;2022-12-10T17:10:54;1.60;99.90
16767;DHT22;8501;49.926;8.404;2022-12-10T17:13:39;1.60;99.90
16767;DHT22;8501;49.926;8.404;2022-12-10T17:16:06;1.50;99.90
16767;DHT22;8501;49.926;8.404;2022-12-10T17:18:33;1.50;99.90
16767;DHT22;8501;49.926;8.404;2022-12-10T17:20:59;1.50;99.90
16767;DHT22;8501;49.926;8.404;2022-12-10T17:23:25;1.50;99.90
16767;DHT22;8501;49.926;8.404;2022-12-10T17:25:50;1.40;99.90
16767;DHT22;8501;49.926;8.404;2022-12-10T17:28:18;1.40;99.90
16767;DHT22;8501;49.926;8.404;2022-12-10T17:30:45;1.40;99.90
16767;DHT22;8501;49.926;8.404;2022-12-10T17:33:15;1.40;99.90
16767;DHT22;8501;49.926;8.404;2022-12-10T17:35:43;1.30;99.90
16767;DHT22;8501;49.926;8.404;2022-12-10T17:38:21;1.30;99.90
16767;DHT22;8501;49.926;8.404;2022-12-10T17:40:47;1.20;99.90
16767;DHT22;8501;49.926;8.404;2022-12-10T17:43:13;1.10;99.90
16767;DHT22;8501;49.926;8.404;2022-12-10T17:45:40;1.10;99.90
16767;DHT22;8501;49.926;8.404;2022-12-10T17:48:06;1.20;99.90
16767;DHT22;8501;49.926;8.404;2022-12-10T17:50:33;1.20;99.90
16767;DHT22;8501;49.926;8.404;2022-12-10T17:53:00;1.20;99.90
16767;DHT22;8501;49.926;8.404;2022-12-10T17:55:26;1.20;99.90